sensor_id;sensor_type;location;lat;lon;timestamp;temperature;humidity
51982;DHT22;37998;53.416;6.730;2022-07-23T00:00:33;16.10;99.90
51982;DHT22;37998;53.416;6.730;2022-07-23T00:02:59;16.10;99.90
51982;DHT22;37998;53.416;6.730;2022-07-23T00:05:25;16.10;99.90
51982;DHT22;37998;53.416;6.730;2022-07-23T00:07:50;16.10;99.90
51982;DHT22;37998;53.416;6.730;2022-07-23T00:10:16;16.10;99.90
51982;DHT22;37998;53.416;6.730;2022-07-23T00:12:42;16.20;99.90
51982;DHT22;37998;53.416;6.730;2022-07-23T00:15:08;16.20;99.90
51982;DHT22;37998;53.416;6.730;2022-07-23T00:17:34;16.30;99.90
51982;DHT22;37998;53.416;6.730;2022-07-23T00:20:00;16.30;99.90
51982;DHT22;37998;53.416;6.730;2022-07-23T00:22:25;16.30;99.90
51982;DHT22;37998;53.416;6.730;2022-07-23T00:24:51;16.30;99.90
51982;DHT22;37998;53.416;6.730;2022-07-23T00:27:17;16.30;99.90
51982;DHT22;37998;53.416;6.730;2022-07-23T00:29:42;16.30;99.90
51982;DHT22;37998;53.416;6.730;2022-07-23T00:32:08;16.30;99.90
51982;DHT22;37998;53.416;6.730;2022-07-23T00:34:34;16.20;99.90
51982;DHT22;37998;53.416;6.730;2022-07-23T00:37:00;16.20;99.90
51982;DHT22;37998;53.416;6.730;2022-07-23T00:39:25;16.20;99.90
51982;DHT22;37998;53.416;6.730;2022-07-23T00:41:51;16.20;99.90
51982;DHT22;37998;53.416;6.730;2022-07-23T00:44:22;16.20;99.90
51982;DHT22;37998;53.416;6.730;2022-07-23T00:46:56;16.20;99.90
51982;DHT22;37998;53.416;6.730;2022-07-23T00:49:24;16.20;99.90
51982;DHT22;37998;53.416;6.730;2022-07-23T00:51:50;16.20;99.90
51982;DHT22;37998;53.416;6.730;2022-07-23T00:54:17;16.20;99.90
51982;DHT22;37998;53.416;6.730;2022-07-23T00:56:44;16.20;99.90
51982;DHT22;37998;53.416;6.730;2022-07-23T00:59:11;16.20;99.90
51982;DHT22;37998;53.416;6.730;2022-07-23T01:01:37;16.10;99.90
51982;DHT22;37998;53.416;6.730;2022-07-23T01:04:03;16.10;99.90
51982;DHT22;37998;53.416;6.730;2022-07-23T01:06:28;16.10;99.90
51982;DHT22;37998;53.416;6.730;2022-07-23T01:08:55;16.10;99.90
51982;DHT22;37998;53.416;6.730;2022-07-23T01:11:22;16.10;99.90
51982;DHT22;37998;53.416;6.730;2022-07-23T01:13:48;16.10;99.90
51982;DHT22;37998;53.416;6.730;2022-07-23T01:16:14;16.10;99.90
51982;DHT22;37998;53.416;6.730;2022-07-23T01:18:41;16.10;99.90
51982;DHT22;37998;53.416;6.730;2022-07-23T01:21:08;16.20;99.90
51982;DHT22;37998;53.416;6.730;2022-07-23T01:23:34;16.20;99.90
51982;DHT22;37998;53.416;6.730;2022-07-23T01:26:00;16.20;99.90
51982;DHT22;37998;53.416;6.730;2022-07-23T01:28:25;16.10;99.90
51982;DHT22;37998;53.416;6.730;2022-07-23T01:30:51;16.00;99.90
51982;DHT22;37998;53.416;6.730;2022-07-23T01:33:17;15.90;99.90
51982;DHT22;37998;53.416;6.730;2022-07-23T01:35:42;15.80;99.90
51982;DHT22;37998;53.416;6.730;2022-07-23T01:38:08;15.70;99.90
51982;DHT22;37998;53.416;6.730;2022-07-23T01:40:34;15.70;99.90
51982;DHT22;37998;53.416;6.730;2022-07-23T01:42:59;15.60;99.90
51982;DHT22;37998;53.416;6.730;2022-07-23T01:45:25;15.50;99.90
51982;DHT22;37998;53.416;6.730;2022-07-23T01:47:51;15.40;99.90
51982;DHT22;37998;53.416;6.730;2022-07-23T01:50:16;15.40;99.90
51982;DHT22;37998;53.416;6.730;2022-07-23T01:52:42;15.40;99.90
51982;DHT22;37998;53.416;6.730;2022-07-23T01:55:08;15.50;99.90
51982;DHT22;37998;53.416;6.730;2022-07-23T01:57:34;15.50;99.90
51982;DHT22;37998;53.416;6.730;2022-07-23T01:59:59;15.50;99.90
51982;DHT22;37998;53.416;6.730;2022-07-23T02:02:25;15.60;99.90
51982;DHT22;37998;53.416;6.730;2022-07-23T02:04:51;15.60;99.90
51982;DHT22;37998;53.416;6.730;2022-07-23T02:07:16;15.70;99.90
51982;DHT22;37998;53.416;6.730;2022-07-23T02:09:42;15.70;99.90
51982;DHT22;37998;53.416;6.730;2022-07-23T02:12:08;15.70;99.90
51982;DHT22;37998;53.416;6.730;2022-07-23T02:14:33;15.80;99.90
51982;DHT22;37998;53.416;6.730;2022-07-23T02:16:59;15.80;99.90
51982;DHT22;37998;53.416;6.730;2022-07-23T02:19:25;15.90;99.90
51982;DHT22;37998;53.416;6.730;2022-07-23T02:21:51;15.80;99.90
51982;DHT22;37998;53.416;6.730;2022-07-23T02:24:16;15.80;99.90
51982;DHT22;37998;53.416;6.730;2022-07-23T02:26:42;15.80;99.90
51982;DHT22;37998;53.416;6.730;2022-07-23T02:29:08;15.80;99.90
51982;DHT22;37998;53.416;6.730;2022-07-23T02:31:34;15.70;99.90
51982;DHT22;37998;53.416;6.730;2022-07-23T02:34:00;15.70;99.90
51982;DHT22;37998;53.416;6.730;2022-07-23T02:36:27;15.60;99.90
51982;DHT22;37998;53.416;6.730;2022-07-23T02:38:53;15.50;99.90
51982;DHT22;37998;53.416;6.730;2022-07-23T02:41:18;15.50;99.90
51982;DHT22;37998;53.416;6.730;2022-07-23T02:43:44;15.40;99.90
51982;DHT22;37998;53.416;6.730;2022-07-23T02:46:09;15.30;99.90
51982;DHT22;37998;53.416;6.730;2022-07-23T02:48:35;15.30;99.90
51982;DHT22;37998;53.416;6.730;2022-07-23T02:51:01;15.20;99.90
51982;DHT22;37998;53.416;6.730;2022-07-23T02:53:26;15.20;99.90
51982;DHT22;37998;53.416;6.730;2022-07-23T02:55:52;15.10;99.90
51982;DHT22;37998;53.416;6.730;2022-07-23T02:58:18;15.20;99.90
51982;DHT22;37998;53.416;6.730;2022-07-23T03:00:43;15.20;99.90
51982;DHT22;37998;53.416;6.730;2022-07-23T03:03:09;15.30;99.90
51982;DHT22;37998;53.416;6.730;2022-07-23T03:05:35;15.30;99.90
51982;DHT22;37998;53.416;6.730;2022-07-23T03:08:01;15.40;99.90
51982;DHT22;37998;53.416;6.730;2022-07-23T03:10:27;15.40;99.90
51982;DHT22;37998;53.416;6.730;2022-07-23T03:12:52;15.40;99.90
51982;DHT22;37998;53.416;6.730;2022-07-23T03:15:18;15.40;99.90
51982;DHT22;37998;53.416;6.730;2022-07-23T03:17:44;15.40;99.90
51982;DHT22;37998;53.416;6.730;2022-07-23T03:20:10;15.40;99.90
51982;DHT22;37998;53.416;6.730;2022-07-23T03:22:35;15.50;99.90
51982;DHT22;37998;53.416;6.730;2022-07-23T03:25:01;15.50;99.90
51982;DHT22;37998;53.416;6.730;2022-07-23T03:27:29;15.50;99.90
51982;DHT22;37998;53.416;6.730;2022-07-23T03:29:57;15.50;99.90
51982;DHT22;37998;53.416;6.730;2022-07-23T03:32:23;15.60;99.90
51982;DHT22;37998;53.416;6.730;2022-07-23T03:34:49;15.60;99.90
51982;DHT22;37998;53.416;6.730;2022-07-23T03:37:15;15.60;99.90
51982;DHT22;37998;53.416;6.730;2022-07-23T03:39:41;15.50;99.90
51982;DHT22;37998;53.416;6.730;2022-07-23T03:42:07;15.50;99.90
51982;DHT22;37998;53.416;6.730;2022-07-23T03:44:33;15.60;99.90
51982;DHT22;37998;53.416;6.730;2022-07-23T03:46:59;15.60;99.90
51982;DHT22;37998;53.416;6.730;2022-07-23T03:49:25;15.40;99.90
51982;DHT22;37998;53.416;6.730;2022-07-23T03:51:51;15.50;99.90
51982;DHT22;37998;53.416;6.730;2022-07-23T03:54:16;15.40;99.90
51982;DHT22;37998;53.416;6.730;2022-07-23T03:56:42;15.40;99.90
51982;DHT22;37998;53.416;6.730;2022-07-23T03:59:08;15.40;99.90
51982;DHT22;37998;53.416;6.730;2022-07-23T04:01:34;15.40;99.90
51982;DHT22;37998;53.416;6.730;2022-07-23T04:04:00;15.40;99.90
51982;DHT22;37998;53.416;6.730;2022-07-23T04:06:26;15.30;99.90
51982;DHT22;37998;53.416;6.730;2022-07-23T04:08:52;15.30;99.90
51982;DHT22;37998;53.416;6.730;2022-07-23T04:11:17;15.30;99.90
51982;DHT22;37998;53.416;6.730;2022-07-23T04:13:43;15.30;99.90
51982;DHT22;37998;53.416;6.730;2022-07-23T04:16:09;15.30;99.90
51982;DHT22;37998;53.416;6.730;2022-07-23T04:18:35;15.30;99.90
51982;DHT22;37998;53.416;6.730;2022-07-23T04:21:00;15.40;99.90
51982;DHT22;37998;53.416;6.730;2022-07-23T04:23:26;15.40;99.90
51982;DHT22;37998;53.416;6.730;2022-07-23T04:25:52;15.50;99.90
51982;DHT22;37998;53.416;6.730;2022-07-23T04:28:17;15.50;99.90
51982;DHT22;37998;53.416;6.730;2022-07-23T04:30:43;15.40;99.90
51982;DHT22;37998;53.416;6.730;2022-07-23T04:33:09;15.50;99.90
51982;DHT22;37998;53.416;6.730;2022-07-23T04:35:35;15.50;99.90
51982;DHT22;37998;53.416;6.730;2022-07-23T04:38:02;15.40;99.90
51982;DHT22;37998;53.416;6.730;2022-07-23T04:40:28;15.50;99.90
51982;DHT22;37998;53.416;6.730;2022-07-23T04:42:54;15.50;99.90
51982;DHT22;37998;53.416;6.730;2022-07-23T04:45:20;15.50;99.90
51982;DHT22;37998;53.416;6.730;2022-07-23T04:47:45;15.60;99.90
51982;DHT22;37998;53.416;6.730;2022-07-23T04:50:11;15.70;99.90
51982;DHT22;37998;53.416;6.730;2022-07-23T04:52:37;15.70;99.90
51982;DHT22;37998;53.416;6.730;2022-07-23T04:55:04;15.70;99.90
51982;DHT22;37998;53.416;6.730;2022-07-23T04:57:30;15.70;99.90
51982;DHT22;37998;53.416;6.730;2022-07-23T04:59:56;15.70;99.90
51982;DHT22;37998;53.416;6.730;2022-07-23T05:02:21;15.80;99.90
51982;DHT22;37998;53.416;6.730;2022-07-23T05:04:47;15.80;99.90
51982;DHT22;37998;53.416;6.730;2022-07-23T05:07:12;15.80;99.90
51982;DHT22;37998;53.416;6.730;2022-07-23T05:09:38;15.80;99.90
51982;DHT22;37998;53.416;6.730;2022-07-23T05:12:04;15.90;99.90
51982;DHT22;37998;53.416;6.730;2022-07-23T05:14:30;15.90;99.90
51982;DHT22;37998;53.416;6.730;2022-07-23T05:16:55;15.90;99.90
51982;DHT22;37998;53.416;6.730;2022-07-23T05:19:21;15.90;99.90
51982;DHT22;37998;53.416;6.730;2022-07-23T05:21:47;15.90;99.90
51982;DHT22;37998;53.416;6.730;2022-07-23T05:24:12;16.00;99.90
51982;DHT22;37998;53.416;6.730;2022-07-23T05:26:38;16.10;99.90
51982;DHT22;37998;53.416;6.730;2022-07-23T05:29:04;16.00;99.90
51982;DHT22;37998;53.416;6.730;2022-07-23T05:31:29;16.00;99.90
51982;DHT22;37998;53.416;6.730;2022-07-23T05:33:55;16.10;99.90
51982;DHT22;37998;53.416;6.730;2022-07-23T05:36:20;16.10;99.90
51982;DHT22;37998;53.416;6.730;2022-07-23T05:38:46;16.10;99.90
51982;DHT22;37998;53.416;6.730;2022-07-23T05:41:12;16.20;99.90
51982;DHT22;37998;53.416;6.730;2022-07-23T05:43:37;16.20;99.90
51982;DHT22;37998;53.416;6.730;2022-07-23T05:46:03;16.30;99.90
51982;DHT22;37998;53.416;6.730;2022-07-23T05:48:29;16.30;99.90
51982;DHT22;37998;53.416;6.730;2022-07-23T05:50:54;16.40;99.90
51982;DHT22;37998;53.416;6.730;2022-07-23T05:53:20;16.40;99.90
51982;DHT22;37998;53.416;6.730;2022-07-23T05:55:46;16.40;99.90
51982;DHT22;37998;53.416;6.730;2022-07-23T05:58:11;16.40;99.90
51982;DHT22;37998;53.416;6.730;2022-07-23T06:00:37;16.50;99.90
51982;DHT22;37998;53.416;6.730;2022-07-23T06:03:03;16.60;99.90
51982;DHT22;37998;53.416;6.730;2022-07-23T06:05:28;16.60;99.90
51982;DHT22;37998;53.416;6.730;2022-07-23T06:07:54;16.60;99.90
51982;DHT22;37998;53.416;6.730;2022-07-23T06:10:20;16.70;99.90
51982;DHT22;37998;53.416;6.730;2022-07-23T06:12:46;16.70;99.90
51982;DHT22;37998;53.416;6.730;2022-07-23T06:15:12;16.80;99.90
51982;DHT22;37998;53.416;6.730;2022-07-23T06:17:38;16.80;99.90
51982;DHT22;37998;53.416;6.730;2022-07-23T06:20:08;16.90;99.90
51982;DHT22;37998;53.416;6.730;2022-07-23T06:22:34;16.90;99.90
51982;DHT22;37998;53.416;6.730;2022-07-23T06:25:00;17.00;99.90
51982;DHT22;37998;53.416;6.730;2022-07-23T06:27:26;17.10;99.90
51982;DHT22;37998;53.416;6.730;2022-07-23T06:29:52;17.10;99.90
51982;DHT22;37998;53.416;6.730;2022-07-23T06:32:18;17.10;99.90
51982;DHT22;37998;53.416;6.730;2022-07-23T06:34:43;17.10;99.90
51982;DHT22;37998;53.416;6.730;2022-07-23T06:37:09;17.10;99.90
51982;DHT22;37998;53.416;6.730;2022-07-23T06:39:35;16.90;99.90
51982;DHT22;37998;53.416;6.730;2022-07-23T06:42:00;17.00;99.90
51982;DHT22;37998;53.416;6.730;2022-07-23T06:44:26;17.00;99.90
51982;DHT22;37998;53.416;6.730;2022-07-23T06:46:52;17.00;99.90
51982;DHT22;37998;53.416;6.730;2022-07-23T06:49:19;16.90;99.90
51982;DHT22;37998;53.416;6.730;2022-07-23T06:51:44;17.00;99.90
51982;DHT22;37998;53.416;6.730;2022-07-23T06:54:10;17.00;99.90
51982;DHT22;37998;53.416;6.730;2022-07-23T06:56:36;17.00;99.90
51982;DHT22;37998;53.416;6.730;2022-07-23T06:59:02;17.00;99.90
51982;DHT22;37998;53.416;6.730;2022-07-23T07:01:28;16.90;99.90
51982;DHT22;37998;53.416;6.730;2022-07-23T07:03:53;17.00;99.90
51982;DHT22;37998;53.416;6.730;2022-07-23T07:06:19;16.90;99.90
51982;DHT22;37998;53.416;6.730;2022-07-23T07:08:44;16.90;99.90
51982;DHT22;37998;53.416;6.730;2022-07-23T07:11:10;16.90;99.90
51982;DHT22;37998;53.416;6.730;2022-07-23T07:13:37;17.00;99.90
51982;DHT22;37998;53.416;6.730;2022-07-23T07:16:03;17.10;99.90
51982;DHT22;37998;53.416;6.730;2022-07-23T07:18:29;17.20;99.90
51982;DHT22;37998;53.416;6.730;2022-07-23T07:20:54;17.40;99.90
51982;DHT22;37998;53.416;6.730;2022-07-23T07:23:20;17.50;99.90
51982;DHT22;37998;53.416;6.730;2022-07-23T07:25:46;17.50;99.90
51982;DHT22;37998;53.416;6.730;2022-07-23T07:28:12;17.50;99.90
51982;DHT22;37998;53.416;6.730;2022-07-23T07:30:38;17.60;99.90
51982;DHT22;37998;53.416;6.730;2022-07-23T07:33:03;17.60;99.90
51982;DHT22;37998;53.416;6.730;2022-07-23T07:35:29;17.70;99.90
51982;DHT22;37998;53.416;6.730;2022-07-23T07:37:56;17.70;99.90
51982;DHT22;37998;53.416;6.730;2022-07-23T07:40:22;17.80;99.90
51982;DHT22;37998;53.416;6.730;2022-07-23T07:42:49;17.70;99.90
51982;DHT22;37998;53.416;6.730;2022-07-23T07:45:15;17.80;99.90
51982;DHT22;37998;53.416;6.730;2022-07-23T07:47:41;17.90;99.90
51982;DHT22;37998;53.416;6.730;2022-07-23T07:50:07;18.10;99.90
51982;DHT22;37998;53.416;6.730;2022-07-23T07:52:34;18.10;99.90
51982;DHT22;37998;53.416;6.730;2022-07-23T07:55:05;18.10;99.90
51982;DHT22;37998;53.416;6.730;2022-07-23T07:57:32;18.20;99.90
51982;DHT22;37998;53.416;6.730;2022-07-23T07:59:58;18.20;99.90
51982;DHT22;37998;53.416;6.730;2022-07-23T08:02:23;18.20;99.90
51982;DHT22;37998;53.416;6.730;2022-07-23T08:04:49;18.30;99.90
51982;DHT22;37998;53.416;6.730;2022-07-23T08:07:15;18.30;99.90
51982;DHT22;37998;53.416;6.730;2022-07-23T08:09:41;18.30;99.90
51982;DHT22;37998;53.416;6.730;2022-07-23T08:12:07;18.30;99.90
51982;DHT22;37998;53.416;6.730;2022-07-23T08:14:33;18.40;99.90
51982;DHT22;37998;53.416;6.730;2022-07-23T08:16:58;18.60;99.90
51982;DHT22;37998;53.416;6.730;2022-07-23T08:19:25;18.60;99.90
51982;DHT22;37998;53.416;6.730;2022-07-23T08:21:50;18.70;99.90
51982;DHT22;37998;53.416;6.730;2022-07-23T08:24:16;18.70;99.90
51982;DHT22;37998;53.416;6.730;2022-07-23T08:26:42;18.70;99.90
51982;DHT22;37998;53.416;6.730;2022-07-23T08:29:07;18.70;99.90
51982;DHT22;37998;53.416;6.730;2022-07-23T08:31:33;18.70;99.90
51982;DHT22;37998;53.416;6.730;2022-07-23T08:34:02;18.80;99.90
51982;DHT22;37998;53.416;6.730;2022-07-23T08:36:28;18.80;99.90
51982;DHT22;37998;53.416;6.730;2022-07-23T08:39:00;18.80;99.90
51982;DHT22;37998;53.416;6.730;2022-07-23T08:41:29;18.90;99.90
51982;DHT22;37998;53.416;6.730;2022-07-23T08:43:55;19.00;99.90
51982;DHT22;37998;53.416;6.730;2022-07-23T08:46:22;19.10;99.90
51982;DHT22;37998;53.416;6.730;2022-07-23T08:48:49;19.20;99.40
51982;DHT22;37998;53.416;6.730;2022-07-23T08:51:15;19.20;99.30
51982;DHT22;37998;53.416;6.730;2022-07-23T08:53:41;19.20;99.40
51982;DHT22;37998;53.416;6.730;2022-07-23T08:56:08;19.30;98.90
51982;DHT22;37998;53.416;6.730;2022-07-23T08:58:34;19.30;98.70
51982;DHT22;37998;53.416;6.730;2022-07-23T09:01:01;19.40;98.80
51982;DHT22;37998;53.416;6.730;2022-07-23T09:03:33;19.20;98.80
51982;DHT22;37998;53.416;6.730;2022-07-23T09:05:59;19.30;98.90
51982;DHT22;37998;53.416;6.730;2022-07-23T09:08:38;19.20;99.10
51982;DHT22;37998;53.416;6.730;2022-07-23T09:11:06;19.20;98.80
51982;DHT22;37998;53.416;6.730;2022-07-23T09:21:18;19.40;99.30
51982;DHT22;37998;53.416;6.730;2022-07-23T09:23:48;19.60;99.70
51982;DHT22;37998;53.416;6.730;2022-07-23T09:34:36;19.60;99.00
51982;DHT22;37998;53.416;6.730;2022-07-23T09:37:17;19.70;98.50
51982;DHT22;37998;53.416;6.730;2022-07-23T09:39:45;19.60;98.60
51982;DHT22;37998;53.416;6.730;2022-07-23T09:42:23;19.60;98.90
51982;DHT22;37998;53.416;6.730;2022-07-23T09:44:54;19.80;98.30
51982;DHT22;37998;53.416;6.730;2022-07-23T09:47:22;19.90;98.50
51982;DHT22;37998;53.416;6.730;2022-07-23T09:50:05;19.90;98.00
51982;DHT22;37998;53.416;6.730;2022-07-23T09:52:37;19.80;98.00
51982;DHT22;37998;53.416;6.730;2022-07-23T09:55:08;19.90;98.10
51982;DHT22;37998;53.416;6.730;2022-07-23T09:57:34;19.90;97.80
51982;DHT22;37998;53.416;6.730;2022-07-23T10:00:02;19.90;97.90
51982;DHT22;37998;53.416;6.730;2022-07-23T10:02:31;20.00;97.70
51982;DHT22;37998;53.416;6.730;2022-07-23T10:04:58;20.10;97.20
51982;DHT22;37998;53.416;6.730;2022-07-23T10:07:26;20.10;96.60
51982;DHT22;37998;53.416;6.730;2022-07-23T10:09:52;20.00;96.20
51982;DHT22;37998;53.416;6.730;2022-07-23T10:12:19;20.00;96.40
51982;DHT22;37998;53.416;6.730;2022-07-23T10:14:48;20.00;96.70
51982;DHT22;37998;53.416;6.730;2022-07-23T10:17:14;20.00;96.80
51982;DHT22;37998;53.416;6.730;2022-07-23T10:19:40;20.20;96.90
51982;DHT22;37998;53.416;6.730;2022-07-23T10:22:14;20.20;96.80
51982;DHT22;37998;53.416;6.730;2022-07-23T10:24:59;20.20;96.20
51982;DHT22;37998;53.416;6.730;2022-07-23T10:33:29;20.20;96.30
51982;DHT22;37998;53.416;6.730;2022-07-23T10:36:04;20.20;96.80
51982;DHT22;37998;53.416;6.730;2022-07-23T10:38:37;20.10;97.00
51982;DHT22;37998;53.416;6.730;2022-07-23T10:41:08;20.10;97.20
51982;DHT22;37998;53.416;6.730;2022-07-23T10:43:34;19.90;97.30
51982;DHT22;37998;53.416;6.730;2022-07-23T10:46:24;19.90;97.40
51982;DHT22;37998;53.416;6.730;2022-07-23T10:54:42;20.00;97.70
51982;DHT22;37998;53.416;6.730;2022-07-23T10:57:09;20.10;97.70
51982;DHT22;37998;53.416;6.730;2022-07-23T11:02:28;20.50;97.20
51982;DHT22;37998;53.416;6.730;2022-07-23T11:04:59;20.60;97.10
51982;DHT22;37998;53.416;6.730;2022-07-23T11:07:25;20.80;97.60
51982;DHT22;37998;53.416;6.730;2022-07-23T11:09:51;20.80;96.90
51982;DHT22;37998;53.416;6.730;2022-07-23T11:15:01;21.00;96.80
51982;DHT22;37998;53.416;6.730;2022-07-23T11:17:28;21.00;96.80
51982;DHT22;37998;53.416;6.730;2022-07-23T11:22:59;21.10;97.00
51982;DHT22;37998;53.416;6.730;2022-07-23T11:27:51;21.00;97.00
51982;DHT22;37998;53.416;6.730;2022-07-23T11:32:52;20.90;97.20
51982;DHT22;37998;53.416;6.730;2022-07-23T11:35:23;20.80;97.40
51982;DHT22;37998;53.416;6.730;2022-07-23T11:37:49;20.70;97.30
51982;DHT22;37998;53.416;6.730;2022-07-23T11:40:20;20.70;97.50
51982;DHT22;37998;53.416;6.730;2022-07-23T11:42:53;20.70;97.30
51982;DHT22;37998;53.416;6.730;2022-07-23T11:45:19;20.70;97.00
51982;DHT22;37998;53.416;6.730;2022-07-23T11:47:44;20.60;97.40
51982;DHT22;37998;53.416;6.730;2022-07-23T11:50:10;20.50;97.30
51982;DHT22;37998;53.416;6.730;2022-07-23T11:52:36;20.40;97.30
51982;DHT22;37998;53.416;6.730;2022-07-23T11:55:05;20.20;97.40
51982;DHT22;37998;53.416;6.730;2022-07-23T11:57:35;20.30;97.50
51982;DHT22;37998;53.416;6.730;2022-07-23T12:00:27;20.40;97.60
51982;DHT22;37998;53.416;6.730;2022-07-23T12:02:54;20.70;97.30
51982;DHT22;37998;53.416;6.730;2022-07-23T12:05:23;20.90;97.30
51982;DHT22;37998;53.416;6.730;2022-07-23T12:07:51;21.10;97.00
51982;DHT22;37998;53.416;6.730;2022-07-23T12:12:54;21.40;96.60
51982;DHT22;37998;53.416;6.730;2022-07-23T12:15:45;21.40;96.40
51982;DHT22;37998;53.416;6.730;2022-07-23T12:18:10;21.50;96.10
51982;DHT22;37998;53.416;6.730;2022-07-23T12:20:38;21.60;96.20
51982;DHT22;37998;53.416;6.730;2022-07-23T12:23:06;21.70;95.60
51982;DHT22;37998;53.416;6.730;2022-07-23T12:25:35;21.80;95.70
51982;DHT22;37998;53.416;6.730;2022-07-23T12:30:50;22.30;95.10
51982;DHT22;37998;53.416;6.730;2022-07-23T12:33:30;22.20;94.80
51982;DHT22;37998;53.416;6.730;2022-07-23T12:35:59;22.20;94.60
51982;DHT22;37998;53.416;6.730;2022-07-23T12:38:28;22.20;94.40
51982;DHT22;37998;53.416;6.730;2022-07-23T12:40:59;22.20;94.70
51982;DHT22;37998;53.416;6.730;2022-07-23T12:48:31;22.20;94.00
51982;DHT22;37998;53.416;6.730;2022-07-23T12:51:05;22.00;94.40
51982;DHT22;37998;53.416;6.730;2022-07-23T12:53:33;22.10;94.50
51982;DHT22;37998;53.416;6.730;2022-07-23T12:58:51;22.20;94.70
51982;DHT22;37998;53.416;6.730;2022-07-23T13:06:25;22.20;93.80
51982;DHT22;37998;53.416;6.730;2022-07-23T13:08:51;22.00;94.00
51982;DHT22;37998;53.416;6.730;2022-07-23T13:11:16;21.90;93.90
51982;DHT22;37998;53.416;6.730;2022-07-23T13:13:42;21.90;94.10
51982;DHT22;37998;53.416;6.730;2022-07-23T13:16:08;21.80;93.90
51982;DHT22;37998;53.416;6.730;2022-07-23T13:18:33;22.00;93.90
51982;DHT22;37998;53.416;6.730;2022-07-23T13:20:59;22.00;93.80
51982;DHT22;37998;53.416;6.730;2022-07-23T13:23:26;22.20;94.00
51982;DHT22;37998;53.416;6.730;2022-07-23T13:25:52;22.30;93.60
51982;DHT22;37998;53.416;6.730;2022-07-23T13:28:18;22.30;93.80
51982;DHT22;37998;53.416;6.730;2022-07-23T13:30:45;22.30;93.60
51982;DHT22;37998;53.416;6.730;2022-07-23T13:33:11;22.50;93.70
51982;DHT22;37998;53.416;6.730;2022-07-23T13:35:37;22.60;93.80
51982;DHT22;37998;53.416;6.730;2022-07-23T13:38:05;22.70;93.40
51982;DHT22;37998;53.416;6.730;2022-07-23T13:40:37;22.50;92.90
51982;DHT22;37998;53.416;6.730;2022-07-23T13:43:07;22.50;93.10
51982;DHT22;37998;53.416;6.730;2022-07-23T13:45:34;22.30;93.20
51982;DHT22;37998;53.416;6.730;2022-07-23T13:48:00;22.30;93.60
51982;DHT22;37998;53.416;6.730;2022-07-23T13:50:26;22.30;93.50
51982;DHT22;37998;53.416;6.730;2022-07-23T13:52:51;22.40;93.40
51982;DHT22;37998;53.416;6.730;2022-07-23T13:55:17;22.40;92.90
51982;DHT22;37998;53.416;6.730;2022-07-23T13:57:42;22.40;93.10
51982;DHT22;37998;53.416;6.730;2022-07-23T14:00:10;22.50;93.20
51982;DHT22;37998;53.416;6.730;2022-07-23T14:02:37;22.50;93.20
51982;DHT22;37998;53.416;6.730;2022-07-23T14:05:05;22.50;93.00
51982;DHT22;37998;53.416;6.730;2022-07-23T14:07:32;22.40;92.80
51982;DHT22;37998;53.416;6.730;2022-07-23T14:09:57;22.40;92.80
51982;DHT22;37998;53.416;6.730;2022-07-23T14:12:23;22.30;92.80
51982;DHT22;37998;53.416;6.730;2022-07-23T14:14:49;22.30;92.80
51982;DHT22;37998;53.416;6.730;2022-07-23T14:17:14;22.30;92.80
51982;DHT22;37998;53.416;6.730;2022-07-23T14:19:40;22.20;93.20
51982;DHT22;37998;53.416;6.730;2022-07-23T14:22:06;22.00;93.30
51982;DHT22;37998;53.416;6.730;2022-07-23T14:24:31;21.90;93.50
51982;DHT22;37998;53.416;6.730;2022-07-23T14:26:57;21.90;93.90
51982;DHT22;37998;53.416;6.730;2022-07-23T14:29:24;22.00;93.80
51982;DHT22;37998;53.416;6.730;2022-07-23T14:31:50;22.00;93.60
51982;DHT22;37998;53.416;6.730;2022-07-23T14:34:15;22.00;93.90
51982;DHT22;37998;53.416;6.730;2022-07-23T14:36:50;22.00;93.90
51982;DHT22;37998;53.416;6.730;2022-07-23T14:39:16;21.90;94.00
51982;DHT22;37998;53.416;6.730;2022-07-23T14:41:42;21.90;94.10
51982;DHT22;37998;53.416;6.730;2022-07-23T14:44:08;22.00;94.00
51982;DHT22;37998;53.416;6.730;2022-07-23T14:46:34;22.00;94.10
51982;DHT22;37998;53.416;6.730;2022-07-23T14:48:59;21.90;94.40
51982;DHT22;37998;53.416;6.730;2022-07-23T14:51:25;21.80;94.40
51982;DHT22;37998;53.416;6.730;2022-07-23T14:53:51;21.70;94.60
51982;DHT22;37998;53.416;6.730;2022-07-23T14:56:16;21.50;94.70
51982;DHT22;37998;53.416;6.730;2022-07-23T14:58:42;21.40;94.80
51982;DHT22;37998;53.416;6.730;2022-07-23T15:01:08;21.40;95.00
51982;DHT22;37998;53.416;6.730;2022-07-23T15:03:34;21.30;95.20
51982;DHT22;37998;53.416;6.730;2022-07-23T15:05:59;21.30;95.30
51982;DHT22;37998;53.416;6.730;2022-07-23T15:08:25;21.20;95.50
51982;DHT22;37998;53.416;6.730;2022-07-23T15:10:51;21.10;95.60
51982;DHT22;37998;53.416;6.730;2022-07-23T15:13:17;21.10;95.80
51982;DHT22;37998;53.416;6.730;2022-07-23T15:15:43;21.10;95.80
51982;DHT22;37998;53.416;6.730;2022-07-23T15:18:09;21.00;95.80
51982;DHT22;37998;53.416;6.730;2022-07-23T15:20:34;21.00;96.10
51982;DHT22;37998;53.416;6.730;2022-07-23T15:23:00;21.00;96.00
51982;DHT22;37998;53.416;6.730;2022-07-23T15:25:26;21.00;96.20
51982;DHT22;37998;53.416;6.730;2022-07-23T15:27:51;21.10;96.30
51982;DHT22;37998;53.416;6.730;2022-07-23T15:30:17;21.10;96.10
51982;DHT22;37998;53.416;6.730;2022-07-23T15:32:43;21.10;96.10
51982;DHT22;37998;53.416;6.730;2022-07-23T15:35:08;21.00;96.30
51982;DHT22;37998;53.416;6.730;2022-07-23T15:37:35;20.90;96.40
51982;DHT22;37998;53.416;6.730;2022-07-23T15:40:01;21.00;96.50
51982;DHT22;37998;53.416;6.730;2022-07-23T15:42:29;21.00;96.40
51982;DHT22;37998;53.416;6.730;2022-07-23T15:44:54;21.00;96.50
51982;DHT22;37998;53.416;6.730;2022-07-23T15:47:20;20.90;96.60
51982;DHT22;37998;53.416;6.730;2022-07-23T15:49:46;21.00;96.70
51982;DHT22;37998;53.416;6.730;2022-07-23T15:52:12;21.00;96.40
51982;DHT22;37998;53.416;6.730;2022-07-23T15:54:38;21.00;96.10
51982;DHT22;37998;53.416;6.730;2022-07-23T15:57:04;21.00;96.30
51982;DHT22;37998;53.416;6.730;2022-07-23T15:59:31;20.90;96.50
51982;DHT22;37998;53.416;6.730;2022-07-23T16:01:57;20.90;96.60
51982;DHT22;37998;53.416;6.730;2022-07-23T16:04:23;20.80;96.30
51982;DHT22;37998;53.416;6.730;2022-07-23T16:06:49;20.90;96.60
51982;DHT22;37998;53.416;6.730;2022-07-23T16:09:15;20.80;96.40
51982;DHT22;37998;53.416;6.730;2022-07-23T16:11:41;20.90;96.30
51982;DHT22;37998;53.416;6.730;2022-07-23T16:14:07;20.80;96.30
51982;DHT22;37998;53.416;6.730;2022-07-23T16:16:34;20.90;96.40
51982;DHT22;37998;53.416;6.730;2022-07-23T16:19:00;20.80;96.60
51982;DHT22;37998;53.416;6.730;2022-07-23T16:21:26;20.70;96.80
51982;DHT22;37998;53.416;6.730;2022-07-23T16:23:51;20.70;96.80
51982;DHT22;37998;53.416;6.730;2022-07-23T16:26:17;20.70;96.90